sensor_id;sensor_type;location;lat;lon;timestamp;P1;durP1;ratioP1;P2;durP2;ratioP2
15287;SDS011;7745;48.708;9.026;2022-11-15T00:01:07;4.57;;;2.50;;
15287;SDS011;7745;48.708;9.026;2022-11-15T00:03:45;3.33;;;2.53;;
15287;SDS011;7745;48.708;9.026;2022-11-15T00:06:23;5.70;;;3.00;;
15287;SDS011;7745;48.708;9.026;2022-11-15T00:08:57;5.80;;;2.50;;
15287;SDS011;7745;48.708;9.026;2022-11-15T00:11:32;4.07;;;2.67;;
15287;SDS011;7745;48.708;9.026;2022-11-15T00:14:08;3.17;;;2.77;;
15287;SDS011;7745;48.708;9.026;2022-11-15T00:16:41;4.60;;;2.90;;
15287;SDS011;7745;48.708;9.026;2022-11-15T00:19:16;4.73;;;2.43;;
15287;SDS011;7745;48.708;9.026;2022-11-15T00:21:45;4.80;;;2.93;;
15287;SDS011;7745;48.708;9.026;2022-11-15T00:24:16;8.07;;;3.27;;
15287;SDS011;7745;48.708;9.026;2022-11-15T00:26:46;4.63;;;2.87;;
15287;SDS011;7745;48.708;9.026;2022-11-15T00:29:17;4.30;;;2.33;;
15287;SDS011;7745;48.708;9.026;2022-11-15T00:31:58;4.67;;;2.70;;
15287;SDS011;7745;48.708;9.026;2022-11-15T00:34:28;3.77;;;2.77;;
15287;SDS011;7745;48.708;9.026;2022-11-15T00:37:05;4.93;;;2.50;;
15287;SDS011;7745;48.708;9.026;2022-11-15T00:39:38;4.13;;;2.90;;
15287;SDS011;7745;48.708;9.026;2022-11-15T00:42:10;4.03;;;3.00;;
15287;SDS011;7745;48.708;9.026;2022-11-15T00:44:57;4.70;;;2.83;;
15287;SDS011;7745;48.708;9.026;2022-11-15T00:47:32;5.40;;;2.90;;
15287;SDS011;7745;48.708;9.026;2022-11-15T00:50:04;5.67;;;3.00;;
15287;SDS011;7745;48.708;9.026;2022-11-15T00:52:44;4.00;;;3.10;;
15287;SDS011;7745;48.708;9.026;2022-11-15T00:55:32;3.83;;;2.80;;
15287;SDS011;7745;48.708;9.026;2022-11-15T00:58:05;4.03;;;2.83;;
15287;SDS011;7745;48.708;9.026;2022-11-15T01:00:42;4.83;;;2.97;;
15287;SDS011;7745;48.708;9.026;2022-11-15T01:03:24;4.00;;;2.97;;
15287;SDS011;7745;48.708;9.026;2022-11-15T01:05:58;4.33;;;3.00;;
15287;SDS011;7745;48.708;9.026;2022-11-15T01:08:35;3.70;;;3.03;;
15287;SDS011;7745;48.708;9.026;2022-11-15T01:11:11;5.03;;;2.80;;
15287;SDS011;7745;48.708;9.026;2022-11-15T01:13:47;7.30;;;2.97;;
15287;SDS011;7745;48.708;9.026;2022-11-15T01:16:18;5.73;;;3.07;;
15287;SDS011;7745;48.708;9.026;2022-11-15T01:18:50;4.50;;;2.93;;
15287;SDS011;7745;48.708;9.026;2022-11-15T01:21:29;3.83;;;2.67;;
15287;SDS011;7745;48.708;9.026;2022-11-15T01:24:02;2.83;;;2.57;;
15287;SDS011;7745;48.708;9.026;2022-11-15T01:26:36;4.47;;;3.13;;
15287;SDS011;7745;48.708;9.026;2022-11-15T01:29:15;4.40;;;2.73;;
15287;SDS011;7745;48.708;9.026;2022-11-15T01:31:52;4.23;;;3.03;;
15287;SDS011;7745;48.708;9.026;2022-11-15T01:34:28;5.17;;;2.93;;
15287;SDS011;7745;48.708;9.026;2022-11-15T01:37:06;3.90;;;2.93;;
15287;SDS011;7745;48.708;9.026;2022-11-15T01:39:34;5.87;;;3.00;;
15287;SDS011;7745;48.708;9.026;2022-11-15T01:42:08;3.33;;;2.57;;
15287;SDS011;7745;48.708;9.026;2022-11-15T01:44:41;3.77;;;2.60;;
15287;SDS011;7745;48.708;9.026;2022-11-15T01:47:19;4.13;;;2.80;;
15287;SDS011;7745;48.708;9.026;2022-11-15T01:49:58;6.73;;;2.97;;
15287;SDS011;7745;48.708;9.026;2022-11-15T01:52:47;4.23;;;3.10;;
15287;SDS011;7745;48.708;9.026;2022-11-15T01:55:33;4.13;;;3.17;;
15287;SDS011;7745;48.708;9.026;2022-11-15T01:58:04;3.87;;;2.90;;
15287;SDS011;7745;48.708;9.026;2022-11-15T02:00:37;5.37;;;3.40;;
15287;SDS011;7745;48.708;9.026;2022-11-15T02:03:12;6.03;;;3.47;;
15287;SDS011;7745;48.708;9.026;2022-11-15T02:05:58;7.20;;;3.40;;
15287;SDS011;7745;48.708;9.026;2022-11-15T02:08:29;3.87;;;2.57;;
15287;SDS011;7745;48.708;9.026;2022-11-15T02:11:08;2.23;;;2.03;;
15287;SDS011;7745;48.708;9.026;2022-11-15T02:13:39;4.53;;;2.80;;
15287;SDS011;7745;48.708;9.026;2022-11-15T02:16:16;4.67;;;2.67;;
15287;SDS011;7745;48.708;9.026;2022-11-15T02:18:57;4.10;;;2.97;;
15287;SDS011;7745;48.708;9.026;2022-11-15T02:21:36;5.17;;;2.87;;
15287;SDS011;7745;48.708;9.026;2022-11-15T02:24:44;6.63;;;2.97;;
15287;SDS011;7745;48.708;9.026;2022-11-15T02:30:31;4.43;;;3.00;;
15287;SDS011;7745;48.708;9.026;2022-11-15T02:33:08;7.63;;;3.47;;
15287;SDS011;7745;48.708;9.026;2022-11-15T02:35:52;9.53;;;4.60;;
15287;SDS011;7745;48.708;9.026;2022-11-15T02:38:31;12.03;;;4.90;;
15287;SDS011;7745;48.708;9.026;2022-11-15T02:41:07;9.40;;;5.27;;
15287;SDS011;7745;48.708;9.026;2022-11-15T02:43:40;8.70;;;4.20;;
15287;SDS011;7745;48.708;9.026;2022-11-15T02:46:29;8.77;;;4.77;;
15287;SDS011;7745;48.708;9.026;2022-11-15T02:49:27;7.20;;;4.07;;
15287;SDS011;7745;48.708;9.026;2022-11-15T02:52:08;5.37;;;3.53;;
15287;SDS011;7745;48.708;9.026;2022-11-15T02:54:52;6.87;;;3.53;;
15287;SDS011;7745;48.708;9.026;2022-11-15T02:57:28;5.17;;;3.00;;
15287;SDS011;7745;48.708;9.026;2022-11-15T03:00:08;4.27;;;3.07;;
15287;SDS011;7745;48.708;9.026;2022-11-15T03:02:56;4.13;;;2.57;;
15287;SDS011;7745;48.708;9.026;2022-11-15T03:05:37;4.10;;;2.57;;
15287;SDS011;7745;48.708;9.026;2022-11-15T03:08:17;4.30;;;2.50;;
15287;SDS011;7745;48.708;9.026;2022-11-15T03:10:53;4.57;;;2.50;;
15287;SDS011;7745;48.708;9.026;2022-11-15T03:13:33;5.60;;;2.63;;
15287;SDS011;7745;48.708;9.026;2022-11-15T03:16:24;4.57;;;2.90;;
15287;SDS011;7745;48.708;9.026;2022-11-15T03:18:59;4.90;;;2.77;;
15287;SDS011;7745;48.708;9.026;2022-11-15T03:21:30;4.60;;;2.63;;
15287;SDS011;7745;48.708;9.026;2022-11-15T03:24:11;6.77;;;2.90;;
15287;SDS011;7745;48.708;9.026;2022-11-15T03:26:43;4.27;;;2.40;;
15287;SDS011;7745;48.708;9.026;2022-11-15T03:29:15;2.77;;;2.33;;
15287;SDS011;7745;48.708;9.026;2022-11-15T03:31:47;2.80;;;2.60;;
15287;SDS011;7745;48.708;9.026;2022-11-15T03:34:26;3.93;;;2.83;;
15287;SDS011;7745;48.708;9.026;2022-11-15T03:36:56;4.13;;;3.10;;
15287;SDS011;7745;48.708;9.026;2022-11-15T03:39:39;6.27;;;2.70;;
15287;SDS011;7745;48.708;9.026;2022-11-15T03:42:15;3.70;;;2.30;;
15287;SDS011;7745;48.708;9.026;2022-11-15T03:44:53;4.90;;;3.10;;
15287;SDS011;7745;48.708;9.026;2022-11-15T03:47:32;5.30;;;2.77;;
15287;SDS011;7745;48.708;9.026;2022-11-15T03:50:10;3.37;;;2.70;;
15287;SDS011;7745;48.708;9.026;2022-11-15T03:52:39;4.37;;;2.73;;
15287;SDS011;7745;48.708;9.026;2022-11-15T03:55:27;3.33;;;2.63;;
15287;SDS011;7745;48.708;9.026;2022-11-15T03:58:06;3.57;;;2.70;;
15287;SDS011;7745;48.708;9.026;2022-11-15T04:00:33;6.47;;;2.50;;
15287;SDS011;7745;48.708;9.026;2022-11-15T04:03:04;3.00;;;2.70;;
15287;SDS011;7745;48.708;9.026;2022-11-15T04:05:38;3.67;;;2.57;;
15287;SDS011;7745;48.708;9.026;2022-11-15T04:08:13;4.43;;;3.00;;
15287;SDS011;7745;48.708;9.026;2022-11-15T04:10:48;2.93;;;2.67;;
15287;SDS011;7745;48.708;9.026;2022-11-15T04:13:26;4.00;;;2.60;;
15287;SDS011;7745;48.708;9.026;2022-11-15T04:16:01;4.53;;;3.13;;
15287;SDS011;7745;48.708;9.026;2022-11-15T04:18:41;4.70;;;2.60;;
15287;SDS011;7745;48.708;9.026;2022-11-15T04:21:32;3.07;;;2.60;;
15287;SDS011;7745;48.708;9.026;2022-11-15T04:24:13;3.10;;;2.60;;
15287;SDS011;7745;48.708;9.026;2022-11-15T04:26:48;3.27;;;2.47;;
15287;SDS011;7745;48.708;9.026;2022-11-15T04:29:22;2.80;;;2.50;;
15287;SDS011;7745;48.708;9.026;2022-11-15T04:32:03;2.80;;;2.30;;
15287;SDS011;7745;48.708;9.026;2022-11-15T04:34:36;3.87;;;2.80;;
15287;SDS011;7745;48.708;9.026;2022-11-15T04:37:10;3.10;;;2.37;;
15287;SDS011;7745;48.708;9.026;2022-11-15T04:39:41;3.80;;;2.63;;
15287;SDS011;7745;48.708;9.026;2022-11-15T04:42:14;3.67;;;2.53;;
15287;SDS011;7745;48.708;9.026;2022-11-15T04:44:44;5.37;;;3.40;;
15287;SDS011;7745;48.708;9.026;2022-11-15T04:47:23;3.43;;;2.50;;
15287;SDS011;7745;48.708;9.026;2022-11-15T04:49:54;11.33;;;7.47;;
15287;SDS011;7745;48.708;9.026;2022-11-15T04:52:25;25.07;;;14.23;;
15287;SDS011;7745;48.708;9.026;2022-11-15T04:54:54;23.20;;;15.53;;
15287;SDS011;7745;48.708;9.026;2022-11-15T04:57:28;23.10;;;15.00;;
15287;SDS011;7745;48.708;9.026;2022-11-15T04:59:56;21.30;;;12.27;;
15287;SDS011;7745;48.708;9.026;2022-11-15T05:02:27;15.17;;;10.57;;
15287;SDS011;7745;48.708;9.026;2022-11-15T05:05:16;20.77;;;13.73;;
15287;SDS011;7745;48.708;9.026;2022-11-15T05:07:49;17.73;;;11.90;;
15287;SDS011;7745;48.708;9.026;2022-11-15T05:10:24;19.40;;;10.97;;
15287;SDS011;7745;48.708;9.026;2022-11-15T05:13:05;13.27;;;9.20;;
15287;SDS011;7745;48.708;9.026;2022-11-15T05:15:43;7.90;;;5.37;;
15287;SDS011;7745;48.708;9.026;2022-11-15T05:18:16;6.47;;;3.20;;
15287;SDS011;7745;48.708;9.026;2022-11-15T05:20:46;6.17;;;3.57;;
15287;SDS011;7745;48.708;9.026;2022-11-15T05:23:16;8.47;;;4.10;;
15287;SDS011;7745;48.708;9.026;2022-11-15T05:25:51;4.00;;;2.90;;
15287;SDS011;7745;48.708;9.026;2022-11-15T05:28:24;5.03;;;3.13;;
15287;SDS011;7745;48.708;9.026;2022-11-15T05:31:00;7.87;;;3.40;;
15287;SDS011;7745;48.708;9.026;2022-11-15T05:33:31;5.20;;;3.50;;
15287;SDS011;7745;48.708;9.026;2022-11-15T05:36:02;3.70;;;3.17;;
15287;SDS011;7745;48.708;9.026;2022-11-15T05:38:35;6.03;;;3.50;;
15287;SDS011;7745;48.708;9.026;2022-11-15T05:41:06;8.50;;;4.80;;
15287;SDS011;7745;48.708;9.026;2022-11-15T05:43:35;7.63;;;5.43;;
15287;SDS011;7745;48.708;9.026;2022-11-15T05:46:07;11.33;;;7.63;;
15287;SDS011;7745;48.708;9.026;2022-11-15T05:48:45;15.07;;;9.80;;
15287;SDS011;7745;48.708;9.026;2022-11-15T05:51:25;17.07;;;10.50;;
15287;SDS011;7745;48.708;9.026;2022-11-15T05:54:01;16.70;;;11.40;;
15287;SDS011;7745;48.708;9.026;2022-11-15T05:56:30;13.37;;;9.87;;
15287;SDS011;7745;48.708;9.026;2022-11-15T05:59:01;14.50;;;9.43;;
15287;SDS011;7745;48.708;9.026;2022-11-15T06:01:32;15.20;;;8.90;;
15287;SDS011;7745;48.708;9.026;2022-11-15T06:06:59;17.37;;;10.20;;
15287;SDS011;7745;48.708;9.026;2022-11-15T06:09:32;10.57;;;6.47;;
15287;SDS011;7745;48.708;9.026;2022-11-15T06:12:06;7.93;;;6.00;;
15287;SDS011;7745;48.708;9.026;2022-11-15T06:14:37;22.80;;;13.13;;
15287;SDS011;7745;48.708;9.026;2022-11-15T06:17:06;27.27;;;14.60;;
15287;SDS011;7745;48.708;9.026;2022-11-15T06:19:34;24.23;;;12.73;;
15287;SDS011;7745;48.708;9.026;2022-11-15T06:22:01;28.07;;;15.97;;
15287;SDS011;7745;48.708;9.026;2022-11-15T06:24:28;25.07;;;13.90;;
15287;SDS011;7745;48.708;9.026;2022-11-15T06:26:56;32.60;;;17.63;;
15287;SDS011;7745;48.708;9.026;2022-11-15T06:29:24;46.60;;;23.33;;
15287;SDS011;7745;48.708;9.026;2022-11-15T06:31:56;68.20;;;32.60;;
15287;SDS011;7745;48.708;9.026;2022-11-15T06:34:26;44.87;;;24.40;;
15287;SDS011;7745;48.708;9.026;2022-11-15T06:37:07;21.13;;;11.60;;
15287;SDS011;7745;48.708;9.026;2022-11-15T06:39:39;21.20;;;12.97;;
15287;SDS011;7745;48.708;9.026;2022-11-15T06:42:11;21.77;;;12.10;;
15287;SDS011;7745;48.708;9.026;2022-11-15T06:44:40;13.13;;;9.10;;
15287;SDS011;7745;48.708;9.026;2022-11-15T06:47:16;11.27;;;7.73;;
15287;SDS011;7745;48.708;9.026;2022-11-15T06:50:07;12.73;;;8.93;;
15287;SDS011;7745;48.708;9.026;2022-11-15T06:52:43;11.60;;;7.17;;
15287;SDS011;7745;48.708;9.026;2022-11-15T06:55:24;9.33;;;7.13;;
15287;SDS011;7745;48.708;9.026;2022-11-15T07:04:08;10.30;;;6.70;;
15287;SDS011;7745;48.708;9.026;2022-11-15T07:06:37;9.40;;;5.83;;
15287;SDS011;7745;48.708;9.026;2022-11-15T07:09:04;9.27;;;5.70;;
15287;SDS011;7745;48.708;9.026;2022-11-15T07:11:43;5.73;;;3.90;;
15287;SDS011;7745;48.708;9.026;2022-11-15T07:14:12;6.90;;;3.80;;
15287;SDS011;7745;48.708;9.026;2022-11-15T07:17:05;7.03;;;4.30;;
15287;SDS011;7745;48.708;9.026;2022-11-15T07:19:37;7.40;;;4.27;;
15287;SDS011;7745;48.708;9.026;2022-11-15T07:22:07;6.07;;;3.70;;
15287;SDS011;7745;48.708;9.026;2022-11-15T07:24:46;6.70;;;4.10;;
15287;SDS011;7745;48.708;9.026;2022-11-15T07:27:13;6.83;;;3.93;;
15287;SDS011;7745;48.708;9.026;2022-11-15T07:29:44;13.43;;;4.17;;
15287;SDS011;7745;48.708;9.026;2022-11-15T07:32:14;7.30;;;3.87;;
15287;SDS011;7745;48.708;9.026;2022-11-15T07:34:46;6.27;;;3.20;;
15287;SDS011;7745;48.708;9.026;2022-11-15T07:37:16;7.90;;;3.53;;
15287;SDS011;7745;48.708;9.026;2022-11-15T07:39:43;5.60;;;2.37;;
15287;SDS011;7745;48.708;9.026;2022-11-15T07:42:20;3.70;;;2.20;;
15287;SDS011;7745;48.708;9.026;2022-11-15T07:45:17;4.90;;;2.37;;
15287;SDS011;7745;48.708;9.026;2022-11-15T07:47:51;3.57;;;1.83;;
15287;SDS011;7745;48.708;9.026;2022-11-15T07:50:26;2.80;;;2.00;;
15287;SDS011;7745;48.708;9.026;2022-11-15T07:53:01;4.70;;;2.40;;
15287;SDS011;7745;48.708;9.026;2022-11-15T07:55:36;3.10;;;2.40;;
15287;SDS011;7745;48.708;9.026;2022-11-15T07:58:10;3.23;;;2.13;;
15287;SDS011;7745;48.708;9.026;2022-11-15T08:00:47;3.60;;;2.17;;
15287;SDS011;7745;48.708;9.026;2022-11-15T08:03:57;4.43;;;2.13;;
15287;SDS011;7745;48.708;9.026;2022-11-15T08:06:34;6.47;;;2.10;;
15287;SDS011;7745;48.708;9.026;2022-11-15T08:09:11;3.97;;;2.03;;
15287;SDS011;7745;48.708;9.026;2022-11-15T08:11:56;2.83;;;1.77;;
15287;SDS011;7745;48.708;9.026;2022-11-15T08:14:31;4.27;;;2.40;;
15287;SDS011;7745;48.708;9.026;2022-11-15T08:17:06;4.20;;;2.10;;
15287;SDS011;7745;48.708;9.026;2022-11-15T08:19:37;5.60;;;2.00;;
15287;SDS011;7745;48.708;9.026;2022-11-15T08:22:10;3.77;;;2.20;;
15287;SDS011;7745;48.708;9.026;2022-11-15T08:24:42;6.73;;;2.27;;
15287;SDS011;7745;48.708;9.026;2022-11-15T08:27:22;2.50;;;2.00;;
15287;SDS011;7745;48.708;9.026;2022-11-15T08:29:54;3.30;;;1.70;;
15287;SDS011;7745;48.708;9.026;2022-11-15T08:32:21;4.50;;;2.00;;
15287;SDS011;7745;48.708;9.026;2022-11-15T08:34:51;2.77;;;1.90;;
15287;SDS011;7745;48.708;9.026;2022-11-15T08:37:22;1.77;;;1.60;;
15287;SDS011;7745;48.708;9.026;2022-11-15T08:39:51;3.37;;;1.80;;
15287;SDS011;7745;48.708;9.026;2022-11-15T08:42:29;3.87;;;1.80;;
15287;SDS011;7745;48.708;9.026;2022-11-15T08:45:09;2.33;;;1.53;;
15287;SDS011;7745;48.708;9.026;2022-11-15T08:47:39;3.67;;;2.07;;
15287;SDS011;7745;48.708;9.026;2022-11-15T08:50:06;4.80;;;1.87;;
15287;SDS011;7745;48.708;9.026;2022-11-15T08:52:35;3.43;;;1.93;;
15287;SDS011;7745;48.708;9.026;2022-11-15T08:55:02;3.47;;;2.20;;
15287;SDS011;7745;48.708;9.026;2022-11-15T08:57:29;4.60;;;2.20;;
15287;SDS011;7745;48.708;9.026;2022-11-15T08:59:56;4.87;;;2.20;;
15287;SDS011;7745;48.708;9.026;2022-11-15T09:02:23;7.27;;;2.60;;
15287;SDS011;7745;48.708;9.026;2022-11-15T09:04:50;4.70;;;2.43;;
15287;SDS011;7745;48.708;9.026;2022-11-15T09:07:17;4.13;;;2.40;;
15287;SDS011;7745;48.708;9.026;2022-11-15T09:09:45;5.27;;;2.10;;
15287;SDS011;7745;48.708;9.026;2022-11-15T09:12:12;5.90;;;2.20;;
15287;SDS011;7745;48.708;9.026;2022-11-15T09:14:39;4.13;;;2.10;;
15287;SDS011;7745;48.708;9.026;2022-11-15T09:17:06;4.23;;;1.70;;
15287;SDS011;7745;48.708;9.026;2022-11-15T09:19:34;2.40;;;1.73;;
15287;SDS011;7745;48.708;9.026;2022-11-15T09:22:01;2.17;;;1.70;;
15287;SDS011;7745;48.708;9.026;2022-11-15T09:24:31;4.10;;;1.97;;
15287;SDS011;7745;48.708;9.026;2022-11-15T09:26:59;3.27;;;1.93;;
15287;SDS011;7745;48.708;9.026;2022-11-15T09:29:27;4.13;;;1.87;;
15287;SDS011;7745;48.708;9.026;2022-11-15T09:31:54;4.00;;;2.20;;
15287;SDS011;7745;48.708;9.026;2022-11-15T09:34:20;5.23;;;2.40;;
15287;SDS011;7745;48.708;9.026;2022-11-15T09:36:47;5.43;;;2.47;;
15287;SDS011;7745;48.708;9.026;2022-11-15T09:39:14;4.23;;;2.70;;
15287;SDS011;7745;48.708;9.026;2022-11-15T09:41:51;7.07;;;2.50;;
15287;SDS011;7745;48.708;9.026;2022-11-15T09:44:42;6.53;;;2.57;;
15287;SDS011;7745;48.708;9.026;2022-11-15T09:47:27;5.63;;;2.60;;
15287;SDS011;7745;48.708;9.026;2022-11-15T09:50:14;5.63;;;2.90;;
15287;SDS011;7745;48.708;9.026;2022-11-15T09:52:44;8.53;;;2.80;;
15287;SDS011;7745;48.708;9.026;2022-11-15T09:55:12;6.87;;;2.73;;
15287;SDS011;7745;48.708;9.026;2022-11-15T09:57:49;5.20;;;2.87;;
15287;SDS011;7745;48.708;9.026;2022-11-15T10:00:21;5.47;;;2.50;;
15287;SDS011;7745;48.708;9.026;2022-11-15T10:02:58;5.20;;;3.17;;
15287;SDS011;7745;48.708;9.026;2022-11-15T10:05:40;5.03;;;2.80;;
15287;SDS011;7745;48.708;9.026;2022-11-15T10:08:17;6.17;;;3.17;;
15287;SDS011;7745;48.708;9.026;2022-11-15T10:10:56;8.50;;;3.00;;
15287;SDS011;7745;48.708;9.026;2022-11-15T10:13:26;5.27;;;3.27;;
15287;SDS011;7745;48.708;9.026;2022-11-15T10:16:01;6.10;;;3.00;;
15287;SDS011;7745;48.708;9.026;2022-11-15T10:18:42;5.10;;;2.87;;
15287;SDS011;7745;48.708;9.026;2022-11-15T10:21:45;5.73;;;3.30;;
15287;SDS011;7745;48.708;9.026;2022-11-15T10:24:30;8.80;;;3.50;;
15287;SDS011;7745;48.708;9.026;2022-11-15T10:27:03;9.23;;;3.47;;
15287;SDS011;7745;48.708;9.026;2022-11-15T10:29:40;5.43;;;3.13;;
15287;SDS011;7745;48.708;9.026;2022-11-15T10:32:10;9.07;;;2.93;;
15287;SDS011;7745;48.708;9.026;2022-11-15T10:34:37;7.17;;;2.80;;
15287;SDS011;7745;48.708;9.026;2022-11-15T10:37:05;11.47;;;2.63;;
15287;SDS011;7745;48.708;9.026;2022-11-15T10:39:32;5.00;;;2.50;;
15287;SDS011;7745;48.708;9.026;2022-11-15T10:42:15;5.97;;;2.40;;
15287;SDS011;7745;48.708;9.026;2022-11-15T10:44:45;3.03;;;1.60;;
15287;SDS011;7745;48.708;9.026;2022-11-15T10:47:22;6.17;;;2.03;;
15287;SDS011;7745;48.708;9.026;2022-11-15T10:49:55;6.30;;;2.87;;
15287;SDS011;7745;48.708;9.026;2022-11-15T10:52:27;4.30;;;1.97;;
15287;SDS011;7745;48.708;9.026;2022-11-15T10:55:03;4.47;;;2.00;;
15287;SDS011;7745;48.708;9.026;2022-11-15T10:57:49;5.83;;;2.10;;
15287;SDS011;7745;48.708;9.026;2022-11-15T11:00:27;5.43;;;2.00;;
15287;SDS011;7745;48.708;9.026;2022-11-15T11:03:01;3.50;;;1.60;;
15287;SDS011;7745;48.708;9.026;2022-11-15T11:05:32;5.87;;;2.13;;
15287;SDS011;7745;48.708;9.026;2022-11-15T11:08:02;4.43;;;1.97;;
15287;SDS011;7745;48.708;9.026;2022-11-15T11:10:31;5.10;;;1.90;;
15287;SDS011;7745;48.708;9.026;2022-11-15T11:13:12;3.67;;;2.10;;
15287;SDS011;7745;48.708;9.026;2022-11-15T11:15:41;5.20;;;1.70;;
15287;SDS011;7745;48.708;9.026;2022-11-15T11:18:14;3.27;;;1.83;;
15287;SDS011;7745;48.708;9.026;2022-11-15T11:20:49;3.43;;;1.90;;
15287;SDS011;7745;48.708;9.026;2022-11-15T11:23:32;7.10;;;1.90;;
15287;SDS011;7745;48.708;9.026;2022-11-15T11:26:18;3.30;;;2.00;;
15287;SDS011;7745;48.708;9.026;2022-11-15T11:28:59;5.13;;;1.97;;
15287;SDS011;7745;48.708;9.026;2022-11-15T11:31:37;3.73;;;1.60;;
15287;SDS011;7745;48.708;9.026;2022-11-15T11:34:13;2.10;;;1.50;;
15287;SDS011;7745;48.708;9.026;2022-11-15T11:36:45;4.20;;;1.60;;
15287;SDS011;7745;48.708;9.026;2022-11-15T11:39:23;3.40;;;1.50;;
15287;SDS011;7745;48.708;9.026;2022-11-15T11:41:56;3.63;;;1.63;;
15287;SDS011;7745;48.708;9.026;2022-11-15T11:44:39;2.67;;;1.70;;
15287;SDS011;7745;48.708;9.026;2022-11-15T11:47:16;5.23;;;1.70;;
15287;SDS011;7745;48.708;9.026;2022-11-15T11:49:49;4.60;;;1.60;;
15287;SDS011;7745;48.708;9.026;2022-11-15T11:52:20;5.53;;;2.10;;
15287;SDS011;7745;48.708;9.026;2022-11-15T11:54:54;3.63;;;1.50;;
15287;SDS011;7745;48.708;9.026;2022-11-15T11:57:28;5.33;;;1.47;;
15287;SDS011;7745;48.708;9.026;2022-11-15T12:00:03;3.40;;;1.57;;
15287;SDS011;7745;48.708;9.026;2022-11-15T12:02:50;2.40;;;1.30;;
15287;SDS011;7745;48.708;9.026;2022-11-15T12:05:34;3.20;;;1.60;;
15287;SDS011;7745;48.708;9.026;2022-11-15T12:08:11;2.13;;;1.40;;
15287;SDS011;7745;48.708;9.026;2022-11-15T12:10:50;2.10;;;1.20;;
15287;SDS011;7745;48.708;9.026;2022-11-15T12:13:24;3.23;;;1.13;;
15287;SDS011;7745;48.708;9.026;2022-11-15T12:15:59;1.83;;;1.30;;
15287;SDS011;7745;48.708;9.026;2022-11-15T12:18:34;1.60;;;1.33;;
15287;SDS011;7745;48.708;9.026;2022-11-15T12:21:13;4.90;;;1.50;;
15287;SDS011;7745;48.708;9.026;2022-11-15T12:27:18;6.53;;;1.83;;
15287;SDS011;7745;48.708;9.026;2022-11-15T12:29:56;2.90;;;1.77;;
15287;SDS011;7745;48.708;9.026;2022-11-15T12:32:33;4.47;;;1.70;;
15287;SDS011;7745;48.708;9.026;2022-11-15T12:35:20;2.40;;;1.60;;
15287;SDS011;7745;48.708;9.026;2022-11-15T12:38:11;4.07;;;1.80;;
15287;SDS011;7745;48.708;9.026;2022-11-15T12:47:27;3.83;;;1.40;;
15287;SDS011;7745;48.708;9.026;2022-11-15T12:53:32;3.25;;;1.55;;
15287;SDS011;7745;48.708;9.026;2022-11-15T12:56:24;2.43;;;1.53;;
15287;SDS011;7745;48.708;9.026;2022-11-15T13:03:29;4.13;;;1.50;;
15287;SDS011;7745;48.708;9.026;2022-11-15T13:13:08;3.83;;;1.53;;
15287;SDS011;7745;48.708;9.026;2022-11-15T13:16:15;2.13;;;1.40;;
15287;SDS011;7745;48.708;9.026;2022-11-15T13:19:25;3.17;;;1.20;;
15287;SDS011;7745;48.708;9.026;2022-11-15T13:22:13;2.40;;;1.57;;
15287;SDS011;7745;48.708;9.026;2022-11-15T13:25:01;5.67;;;1.53;;
15287;SDS011;7745;48.708;9.026;2022-11-15T13:27:57;4.43;;;1.77;;
15287;SDS011;7745;48.708;9.026;2022-11-15T13:30:48;2.47;;;1.70;;
15287;SDS011;7745;48.708;9.026;2022-11-15T13:33:31;3.23;;;1.70;;
15287;SDS011;7745;48.708;9.026;2022-11-15T13:36:12;5.53;;;1.67;;
15287;SDS011;7745;48.708;9.026;2022-11-15T13:38:54;3.83;;;1.70;;
15287;SDS011;7745;48.708;9.026;2022-11-15T13:41:46;2.30;;;1.60;;
15287;SDS011;7745;48.708;9.026;2022-11-15T13:44:28;2.50;;;1.60;;
15287;SDS011;7745;48.708;9.026;2022-11-15T13:47:04;3.40;;;1.60;;
15287;SDS011;7745;48.708;9.026;2022-11-15T13:53:04;2.10;;;1.57;;
15287;SDS011;7745;48.708;9.026;2022-11-15T13:55:52;2.40;;;1.80;;
15287;SDS011;7745;48.708;9.026;2022-11-15T13:58:38;2.93;;;1.80;;
15287;SDS011;7745;48.708;9.026;2022-11-15T14:01:15;4.30;;;1.87;;
15287;SDS011;7745;48.708;9.026;2022-11-15T14:04:09;3.80;;;1.73;;
15287;SDS011;7745;48.708;9.026;2022-11-15T14:07:14;3.40;;;1.93;;
15287;SDS011;7745;48.708;9.026;2022-11-15T14:13:26;5.00;;;1.83;;
15287;SDS011;7745;48.708;9.026;2022-11-15T14:16:35;4.03;;;1.80;;
15287;SDS011;7745;48.708;9.026;2022-11-15T14:19:37;2.70;;;2.00;;
15287;SDS011;7745;48.708;9.026;2022-11-15T14:22:12;4.83;;;2.23;;
15287;SDS011;7745;48.708;9.026;2022-11-15T14:24:50;2.37;;;1.90;;
15287;SDS011;7745;48.708;9.026;2022-11-15T14:30:46;4.30;;;2.00;;
15287;SDS011;7745;48.708;9.026;2022-11-15T14:33:24;3.33;;;2.43;;
15287;SDS011;7745;48.708;9.026;2022-11-15T14:36:05;5.77;;;2.27;;
15287;SDS011;7745;48.708;9.026;2022-11-15T14:38:46;7.07;;;2.23;;
15287;SDS011;7745;48.708;9.026;2022-11-15T14:41:17;3.97;;;1.97;;
15287;SDS011;7745;48.708;9.026;2022-11-15T14:43:47;5.63;;;2.40;;
15287;SDS011;7745;48.708;9.026;2022-11-15T14:46:15;7.13;;;2.10;;
15287;SDS011;7745;48.708;9.026;2022-11-15T14:48:42;4.77;;;1.70;;
15287;SDS011;7745;48.708;9.026;2022-11-15T14:51:10;4.13;;;1.73;;
15287;SDS011;7745;48.708;9.026;2022-11-15T14:53:39;6.03;;;2.10;;
15287;SDS011;7745;48.708;9.026;2022-11-15T14:56:06;4.23;;;1.83;;
15287;SDS011;7745;48.708;9.026;2022-11-15T14:58:32;3.47;;;1.90;;
15287;SDS011;7745;48.708;9.026;2022-11-15T15:01:01;3.87;;;2.53;;
15287;SDS011;7745;48.708;9.026;2022-11-15T15:03:29;3.10;;;1.90;;
15287;SDS011;7745;48.708;9.026;2022-11-15T15:05:56;4.77;;;1.97;;
15287;SDS011;7745;48.708;9.026;2022-11-15T15:08:23;3.47;;;1.87;;
15287;SDS011;7745;48.708;9.026;2022-11-15T15:10:50;2.17;;;1.80;;
15287;SDS011;7745;48.708;9.026;2022-11-15T15:13:18;2.07;;;1.80;;
15287;SDS011;7745;48.708;9.026;2022-11-15T15:15:46;4.63;;;2.00;;
15287;SDS011;7745;48.708;9.026;2022-11-15T15:18:15;2.90;;;1.93;;
15287;SDS011;7745;48.708;9.026;2022-11-15T15:20:42;3.73;;;2.27;;
15287;SDS011;7745;48.708;9.026;2022-11-15T15:23:14;3.10;;;2.17;;
15287;SDS011;7745;48.708;9.026;2022-11-15T15:25:44;4.47;;;1.93;;
15287;SDS011;7745;48.708;9.026;2022-11-15T15:28:11;2.63;;;1.90;;
15287;SDS011;7745;48.708;9.026;2022-11-15T15:30:38;2.37;;;2.10;;
15287;SDS011;7745;48.708;9.026;2022-11-15T15:33:05;3.17;;;2.13;;
15287;SDS011;7745;48.708;9.026;2022-11-15T15:35:36;3.33;;;2.30;;
15287;SDS011;7745;48.708;9.026;2022-11-15T15:38:18;3.83;;;2.60;;
15287;SDS011;7745;48.708;9.026;2022-11-15T15:40:53;5.60;;;2.60;;
15287;SDS011;7745;48.708;9.026;2022-11-15T15:43:20;2.93;;;2.37;;
15287;SDS011;7745;48.708;9.026;2022-11-15T15:45:47;4.10;;;2.67;;
15287;SDS011;7745;48.708;9.026;2022-11-15T15:48:15;5.10;;;2.67;;
15287;SDS011;7745;48.708;9.026;2022-11-15T15:50:53;7.63;;;3.00;;
15287;SDS011;7745;48.708;9.026;2022-11-15T15:53:20;3.03;;;2.57;;
15287;SDS011;7745;48.708;9.026;2022-11-15T15:55:47;4.47;;;2.83;;
15287;SDS011;7745;48.708;9.026;2022-11-15T15:58:14;4.67;;;2.70;;
15287;SDS011;7745;48.708;9.026;2022-11-15T16:00:40;3.63;;;2.50;;
15287;SDS011;7745;48.708;9.026;2022-11-15T16:03:07;5.80;;;3.03;;
15287;SDS011;7745;48.708;9.026;2022-11-15T16:05:34;3.50;;;2.50;;
15287;SDS011;7745;48.708;9.026;2022-11-15T16:08:02;6.67;;;3.10;;
15287;SDS011;7745;48.708;9.026;2022-11-15T16:10:31;4.97;;;2.57;;
15287;SDS011;7745;48.708;9.026;2022-11-15T16:12:59;8.47;;;3.00;;
15287;SDS011;7745;48.708;9.026;2022-11-15T16:15:26;5.43;;;3.00;;
15287;SDS011;7745;48.708;9.026;2022-11-15T16:17:55;4.80;;;2.97;;
15287;SDS011;7745;48.708;9.026;2022-11-15T16:20:34;8.33;;;3.20;;
15287;SDS011;7745;48.708;9.026;2022-11-15T16:23:05;5.70;;;2.77;;
15287;SDS011;7745;48.708;9.026;2022-11-15T16:25:34;4.37;;;3.10;;
15287;SDS011;7745;48.708;9.026;2022-11-15T16:28:04;4.93;;;2.77;;
15287;SDS011;7745;48.708;9.026;2022-11-15T16:30:31;7.53;;;2.90;;
15287;SDS011;7745;48.708;9.026;2022-11-15T16:32:58;5.70;;;2.57;;
15287;SDS011;7745;48.708;9.026;2022-11-15T16:35:25;6.40;;;2.80;;
15287;SDS011;7745;48.708;9.026;2022-11-15T16:37:52;4.50;;;2.60;;